• Join FlightAware (Why Join?)
  • Login
  • US Flag 
12:00PM EST


 

Airport Tracker/Info


-or-


 

Live Flight TrackerFlight Track Log ✈ SWA554 ✈ 07-Apr-2013 ✈ KPHX - KMKE

Flight Track Log - Related Links

Times and Time Zones

All times are in EDT time to prevent confusion due to time zone crossing. See the SWA554 flight status page for this flight to view local times or setup timezone preferences in your user account.

Time Position Orientation Groundspeed Altitude Reporting Facility
EDT Latitude Longitude Course Direction KTS MPH feet Rate Location/Type
10:42AM 33.4333 -111.9833 90° East 192 221 2,000  Level Phoenix TRACON
10:43AM 33.4333 -111.8833 90° East 231 266 4,700 1,980 Climbing Phoenix TRACON
10:44AM 33.4378 -111.8683 70° East 240 276 5,200 2,400 Climbing Albuquerque Center
10:45AM 33.4769 -111.7869 60° Northeast 284 327 8,100 2,580 Climbing Albuquerque Center
10:46AM 33.5200 -111.7042 58° Northeast 295 339 10,500 2,280 Climbing Albuquerque Center
10:47AM 33.5633 -111.6025 63° Northeast 345 397 12,800 2,340 Climbing Albuquerque Center
10:48AM 33.6142 -111.4694 65° Northeast 372 428 15,300 2,340 Climbing Albuquerque Center
10:49AM 33.6567 -111.3531 66° East 385 443 17,600 2,100 Climbing Albuquerque Center
10:50AM 33.7019 -111.2314 66° East 399 459 19,700 1,800 Climbing Albuquerque Center
10:51AM 33.7464 -111.1044 67° East 414 476 21,300 1,620 Climbing Albuquerque Center
10:52AM 33.7933 -110.9717 67° East 430 495 23,100 1,500 Climbing Albuquerque Center
10:53AM 33.8425 -110.8342 67° East 443 510 24,400 1,380 Climbing Albuquerque Center
10:54AM 33.8908 -110.6933 68° East 454 522 26,000 1,560 Climbing Albuquerque Center
10:55AM 33.9511 -110.5217 67° East 463 533 27,700 1,320 Climbing Albuquerque Center
10:56AM 34.0011 -110.3831 66° East 470 541 28,800 1,140 Climbing Albuquerque Center
10:57AM 34.0533 -110.2336 67° East 481 554 30,100 1,020 Climbing Albuquerque Center
10:58AM 34.1086 -110.0739 67° East 479 551 31,000 1,200 Climbing Albuquerque Center
10:59AM 34.1647 -109.9083 68° East 479 551 32,700 1,140 Climbing Albuquerque Center
11:00AM 34.2117 -109.7714 67° East 469 540 33,400 780 Climbing Albuquerque Center
11:01AM 34.2614 -109.6303 67° East 472 543 34,400 720 Climbing Albuquerque Center
11:02AM 34.3164 -109.4658 68° East 474 545 35,000 240 Climbing Albuquerque Center
11:03AM 34.3642 -109.3228 68° East 476 548 35,000  Level Albuquerque Center
11:04AM 34.4208 -109.1586 67° East 475 547 35,000  Level Albuquerque Center
11:05AM 34.4625 -109.0117 71° East 478 550 35,000  Level Albuquerque Center
11:06AM 34.5094 -108.8400 72° East 481 554 35,000  Level Albuquerque Center
11:07AM 34.5494 -108.6936 72° East 480 552 35,000  Level Albuquerque Center
11:08AM 34.5900 -108.5450 72° East 482 555 35,000  Level Albuquerque Center
11:09AM 34.6350 -108.3803 72° East 481 554 35,000  Level Albuquerque Center
11:10AM 34.6764 -108.2250 72° East 483 556 35,000  Level Albuquerque Center
11:12AM 34.7178 -108.0697 72° East 482 555 35,000  Level Albuquerque Center
11:13AM 34.7592 -107.9156 72° East 482 555 35,000  Level Albuquerque Center
11:14AM 34.8011 -107.7603 72° East 483 556 35,000  Level Albuquerque Center
11:15AM 34.8508 -107.5736 72° East 483 556 35,000  Level Albuquerque Center
11:16AM 34.8908 -107.4164 73° East 486 559 35,000  Level Albuquerque Center
11:17AM 34.9311 -107.2594 73° East 486 559 35,000  Level Albuquerque Center
11:18AM 34.9792 -107.0808 72° East 492 566 35,000  Level Albuquerque Center
11:19AM 35.0161 -106.9300 73° East 488 562 35,000  Level Albuquerque Center
11:20AM 35.0644 -106.7594 71° East 479 551 35,000  Level Albuquerque Center
11:21AM 35.1206 -106.6158 64° Northeast 485 558 35,000  Level Albuquerque Center
11:22AM 35.1736 -106.4719 66° East 491 565 35,000  Level Albuquerque Center
11:23AM 35.2292 -106.3225 65° Northeast 487 560 35,000  Level Albuquerque Center
11:24AM 35.2919 -106.1500 66° East 478 550 35,000  Level Albuquerque Center
11:25AM 35.3461 -105.9978 66° East 483 556 35,000  Level Albuquerque Center
11:26AM 35.4036 -105.8450 65° Northeast 488 562 35,000  Level Albuquerque Center
11:27AM 35.4592 -105.6928 66° East 487 560 35,000  Level Albuquerque Center
11:28AM 35.5156 -105.5403 66° East 485 558 35,000  Level Albuquerque Center
11:29AM 35.5744 -105.3650 68° East 475 547 35,000  Level Albuquerque Center
11:30AM 35.6297 -105.2111 66° East 481 554 35,000  Level Albuquerque Center
11:31AM 35.6950 -105.0650 61° Northeast 482 555 35,000  Level Albuquerque Center
11:32AM 35.7700 -104.9286 56° Northeast 476 548 35,000  Level Albuquerque Center
11:33AM 35.8436 -104.7919 56° Northeast 475 547 35,000  Level Albuquerque Center
11:34AM 35.9206 -104.6533 56° Northeast 480 552 35,000  Level Albuquerque Center
11:35AM 35.9942 -104.5164 56° Northeast 476 548 35,000  Level Albuquerque Center
11:36AM 36.0675 -104.3797 56° Northeast 472 543 35,000  Level Albuquerque Center
11:37AM 36.1414 -104.2403 57° Northeast 476 548 35,000  Level Albuquerque Center
11:38AM 36.2153 -104.1025 56° Northeast 476 548 35,000  Level Albuquerque Center
11:39AM 36.3022 -103.9414 56° Northeast 477 549 35,000  Level Albuquerque Center
11:40AM 36.3756 -103.8014 57° Northeast 477 549 35,000  Level Albuquerque Center
11:41AM 36.4492 -103.6614 57° Northeast 479 551 35,000  Level Albuquerque Center
11:42AM 36.5225 -103.5211 57° Northeast 479 551 35,000  Level Albuquerque Center
11:43AM 36.5944 -103.3803 58° Northeast 478 550 35,000  Level Albuquerque Center
11:45AM 36.6678 -103.2406 57° Northeast 476 548 35,000  Level Albuquerque Center
11:46AM 36.7481 -103.0844 57° Northeast 480 552 35,000  Level Albuquerque Center
11:47AM 36.8158 -102.9500 58° Northeast 480 552 35,000  Level Albuquerque Center
11:48AM 36.8975 -102.7936 57° Northeast 482 555 35,000  Level Albuquerque Center
11:49AM 36.9675 -102.6575 57° Northeast 485 558 35,000  Level Albuquerque Center
11:50AM 37.0394 -102.5153 58° Northeast 481 554 35,000  Level Albuquerque Center
11:51AM 37.1192 -102.3564 58° Northeast 482 555 35,000  Level Albuquerque Center
11:52AM 37.1833 -102.2278 58° Northeast 482 555 35,000  Level Albuquerque Center
11:53AM 37.2672 -102.0625 57° Northeast 480 552 35,000  Level Albuquerque Center
11:54AM 37.3344 -101.9264 58° Northeast 480 552 35,000  Level Albuquerque Center
11:55AM 37.3886 -101.8117 59° Northeast 479 551 35,000  Level Kansas City Center
11:56AM 37.4558 -101.6742 58° Northeast 481 554 35,000  Level Kansas City Center
11:57AM 37.5347 -101.5150 58° Northeast 480 552 35,000  Level Kansas City Center
11:58AM 37.6025 -101.3783 58° Northeast 479 551 35,000  Level Kansas City Center
11:59AM 37.6811 -101.2167 58° Northeast 481 554 35,000  Level Kansas City Center
12:00PM 37.7544 -101.0656 58° Northeast 482 555 35,000  Level Kansas City Center
12:01PM 37.8169 -100.9361 59° Northeast 482 555 35,000  Level Kansas City Center
12:02PM 37.8967 -100.7714 58° Northeast 484 557 35,000  Level Kansas City Center
12:03PM 37.9728 -100.6417 53° Northeast 477 549 35,000  Level Kansas City Center
12:04PM 38.0669 -100.4969 50° Northeast 474 545 35,000  Level Kansas City Center
12:05PM 38.1464 -100.3739 51° Northeast 472 543 35,000  Level Kansas City Center
12:06PM 38.2397 -100.2297 50° Northeast 471 542 35,000  Level Kansas City Center
12:07PM 38.3186 -100.1067 51° Northeast 470 541 35,000  Level Kansas City Center
12:08PM 38.3986 -99.9844 50° Northeast 470 541 35,000  Level Kansas City Center
12:09PM 38.4908 -99.8397 51° Northeast 470 541 35,000  Level Kansas City Center
12:10PM 38.5697 -99.7142 51° Northeast 472 543 35,000  Level Kansas City Center
12:11PM 38.6603 -99.5708 51° Northeast 466 536 35,000  Level Kansas City Center
12:12PM 38.7453 -99.4375 51° Northeast 470 541 35,000  Level Kansas City Center
12:13PM 38.8283 -99.3069 51° Northeast 471 542 35,000  Level Kansas City Center
12:14PM 38.9031 -99.1597 57° Northeast 497 572 35,000  Level Kansas City Center
12:15PM 38.9681 -99.0142 60° Northeast 475 547 35,000  Level Kansas City Center
12:16PM 39.0358 -98.8658 59° Northeast 479 551 35,000  Level Kansas City Center
12:17PM 39.1033 -98.7181 59° Northeast 479 551 35,000  Level Kansas City Center
12:18PM 39.1722 -98.5681 59° Northeast 482 555 35,000  Level Kansas City Center
12:19PM 39.2503 -98.3925 60° Northeast 481 554 35,000  Level Kansas City Center
12:20PM 39.3183 -98.2442 59° Northeast 481 554 35,000  Level Kansas City Center
12:21PM 39.3828 -98.0956 61° Northeast 479 551 35,000  Level Kansas City Center
12:22PM 39.4597 -97.9272 59° Northeast 482 555 35,000  Level Kansas City Center
12:24PM 39.5192 -97.7917 60° Northeast 487 560 35,000  Level Kansas City Center
12:25PM 39.5981 -97.6100 61° Northeast 485 558 35,000  Level Kansas City Center
12:25PM 39.6631 -97.4625 60° Northeast 486 559 35,000  Level Minneapolis Center
12:27PM 39.7297 -97.3097 60° Northeast 486 559 35,000  Level Minneapolis Center
12:28PM 39.7956 -97.1564 61° Northeast 487 560 35,000  Level Minneapolis Center
12:29PM 39.8619 -97.0036 60° Northeast 487 560 35,000  Level Minneapolis Center
12:30PM 39.9278 -96.8492 61° Northeast 488 562 35,000  Level Minneapolis Center
12:31PM 39.9931 -96.6950 61° Northeast 487 560 35,000  Level Minneapolis Center
12:32PM 40.0597 -96.5414 60° Northeast 488 562 35,000  Level Minneapolis Center
12:33PM 40.1378 -96.3544 61° Northeast 490 564 35,000  Level Minneapolis Center
12:34PM 40.2033 -96.1986 61° Northeast 490 564 35,000  Level Minneapolis Center
12:35PM 40.2769 -96.0508 57° Northeast 488 562 35,000  Level Minneapolis Center
12:36PM 40.3508 -95.9028 57° Northeast 488 562 35,000  Level Minneapolis Center
12:37PM 40.4247 -95.7525 57° Northeast 491 565 35,000  Level Minneapolis Center
12:38PM 40.4994 -95.6061 56° Northeast 488 562 35,000  Level Minneapolis Center
12:39PM 40.5722 -95.4572 57° Northeast 486 559 35,000  Level Minneapolis Center
12:40PM 40.6606 -95.2794 57° Northeast 486 559 35,000  Level Minneapolis Center
12:41PM 40.7328 -95.1308 57° Northeast 484 557 35,000  Level Minneapolis Center
12:42PM 40.8050 -94.9822 57° Northeast 484 557 35,000  Level Minneapolis Center
12:43PM 40.8772 -94.8331 57° Northeast 484 557 35,000  Level Minneapolis Center
12:44PM 40.9492 -94.6836 57° Northeast 485 558 35,000  Level Minneapolis Center
12:45PM 41.0314 -94.5103 58° Northeast 484 557 35,000  Level Minneapolis Center
12:46PM 41.1025 -94.3589 58° Northeast 485 558 35,000  Level Minneapolis Center
12:47PM 41.1739 -94.2094 58° Northeast 484 557 35,000  Level Minneapolis Center
12:48PM 41.2456 -94.0578 58° Northeast 485 558 35,000  Level Minneapolis Center
12:49PM 41.3167 -93.9061 58° Northeast 486 559 35,000  Level Minneapolis Center
12:50PM 41.3875 -93.7539 58° Northeast 487 560 35,000  Level Minneapolis Center
12:51PM 41.4667 -93.5678 60° Northeast 486 559 35,000  Level Minneapolis Center
12:52PM 41.5225 -93.4028 66° East 488 562 35,000  Level Minneapolis Center
12:53PM 41.5783 -93.2394 65° Northeast 487 560 35,000  Level Minneapolis Center
12:54PM 41.6336 -93.0764 66° East 486 559 35,000  Level Minneapolis Center
12:55PM 41.6889 -92.9119 66° East 487 560 35,000  Level Minneapolis Center
12:56PM 41.7483 -92.7383 65° Northeast 487 560 35,000  Level Minneapolis Center
12:57PM 41.7914 -92.6047 67° East 486 559 35,000  Level Chicago Center
12:58PM 41.8464 -92.4397 66° East 489 563 35,000  Level Chicago Center
12:59PM 41.8994 -92.2764 66° East 485 558 35,000  Level Chicago Center
01:00PM 41.9542 -92.1125 66° East 486 559 35,000  Level Chicago Center
01:01PM 42.0183 -91.9139 66° East 490 564 35,000 -540 Level Chicago Center
01:02PM 42.0728 -91.7506 66° East 486 559 34,000 -960 Descending Chicago Center
01:03PM 42.1261 -91.5842 67° East 489 563 33,100 -960 Descending Chicago Center
01:04PM 42.1781 -91.4192 67° East 485 558 32,100 -1,020 Descending Chicago Center
01:05PM 42.2300 -91.2572 67° East 480 552 31,100 -540 Descending Chicago Center
01:06PM 42.2911 -91.0625 67° East 478 550 31,000 -120 Descending Chicago Center
01:07PM 42.3400 -90.9058 67° East 466 536 30,900 -600 Descending Chicago Center
01:08PM 42.3908 -90.7394 67° East 472 543 29,800 -1,020 Descending Chicago Center
01:09PM 42.4150 -90.5717 79° East 466 536 28,800 -1,020 Descending Chicago Center
01:11PM 42.4358 -90.3639 82° East 470 541 27,700 -1,020 Descending Chicago Center
01:12PM 42.4533 -90.1928 82° East 465 535 26,800 -960 Descending Chicago Center
01:13PM 42.4717 -90.0214 82° East 464 534 25,800 -1,020 Descending Chicago Center
01:14PM 42.4867 -89.8489 83° East 453 521 24,800 -1,020 Descending Chicago Center
01:15PM 42.5033 -89.6861 82° East 440 506 23,700 -1,140 Descending Chicago Center
01:16PM 42.5211 -89.5028 82° East 423 487 22,500 -1,080 Descending Chicago Center
01:17PM 42.5350 -89.3481 83° East 415 478 21,500 -1,500 Descending Chicago Center
01:18PM 42.5486 -89.1983 83° East 403 464 19,400 -2,040 Descending Chicago Center
01:19PM 42.5672 -89.0522 80° East 396 456 17,300 -2,040 Descending Chicago Center
01:20PM 42.5928 -88.9114 76° East 385 443 15,300 -1,920 Descending Chicago Center
01:21PM 42.6219 -88.7581 75° East 366 421 13,400 -1,800 Descending Chicago Center
01:22PM 42.6453 -88.6308 76° East 353 406 11,700 -1,560 Descending Chicago Center
01:23PM 42.6675 -88.5072 76° East 343 395 10,200 -1,320 Descending Chicago Center
01:24PM 42.6892 -88.3867 76° East 333 383 9,000 -1,080 Descending Chicago Center
01:25PM 42.7097 -88.2728 76° East 315 362 8,000 -720 Descending Chicago Center
01:26PM 42.7083 -88.1422 91° East 296 341 7,600 -840 Descending Chicago Center
01:27PM 42.7086 -88.0347 90° East 289 333 6,300 -1,200 Descending Chicago Center
01:28PM 42.7167 -87.9300 84° East 296 341 5,200 -1,140 Descending Chicago Center
01:29PM 42.7753 -87.9125 12° North 231 266 4,000 -1,260 Descending Chicago Center
01:30PM 42.8336 -87.9128 360° North 218 251 2,700 -1,140 Descending Chicago Center
01:31PM 42.8864 -87.9039 North 182 209 1,700 -960 Descending Chicago Center
01:32PM 42.9167 -87.9000 North 137 158 1,000 -840 Descending KMKE
01:34PM 42.9333 -87.8833 North  Level FlightAware Approximate
01:41PM 42.9469 -87.8971 North  Level Estimated